Time;durP1;ratioP1;P1;durP2;ratioP2;P2;SDS_P1;SDS_P2;PMS_P1;PMS_P2;Temp;Humidity;BMP_temperature;BMP_pressure;BME280_temperature;BME280_humidity;BME280_pressure;Samples;Min_cycle;Max_cycle;Signal;HPM_P1;HPM_P2
2023/02/28 00:01:56;;;;;;;7.55;3.95;;;-3.00;99.90;;;;;;6132830;23;20022;-83
2023/02/28 00:04:43;;;;;;;6.03;3.80;;;-3.10;99.90;;;;;;6150691;23;20029;-83
2023/02/28 00:07:31;;;;;;;5.40;3.30;;;-3.10;99.90;;;;;;6153155;23;20033;-83
2023/02/28 00:10:29;;;;;;;6.95;3.92;;;-3.10;99.90;;;;;;6162082;22;20119;-84
2023/02/28 00:13:17;;;;;;;4.88;3.63;;;-3.20;99.90;;;;;;6158215;22;20026;-82
2023/02/28 00:16:08;;;;;;;7.60;3.38;;;-3.20;99.90;;;;;;6150782;23;20325;-82
2023/02/28 00:18:56;;;;;;;5.57;3.78;;;-3.20;99.90;;;;;;6151522;23;20025;-83
2023/02/28 00:21:43;;;;;;;5.55;3.72;;;-3.30;99.90;;;;;;6150850;23;20025;-83
2023/02/28 00:24:33;;;;;;;5.47;4.05;;;-3.30;99.90;;;;;;6156328;22;20025;-84
2023/02/28 00:27:20;;;;;;;5.07;3.47;;;-3.30;99.90;;;;;;6149734;23;20036;-83
2023/02/28 00:30:13;;;;;;;6.45;3.80;;;-3.30;99.90;;;;;;6132192;23;20325;-81
2023/02/28 00:33:01;;;;;;;6.82;3.53;;;-3.30;99.90;;;;;;6152795;23;20029;-84
2023/02/28 00:35:48;;;;;;;6.85;3.45;;;-3.40;99.90;;;;;;6153348;23;20328;-84
2023/02/28 00:38:37;;;;;;;4.53;3.78;;;-3.40;99.90;;;;;;6154568;22;20165;-84
2023/02/28 00:41:24;;;;;;;7.53;4.05;;;-3.50;99.90;;;;;;6154165;23;20033;-83
2023/02/28 00:44:12;;;;;;;9.77;4.10;;;-3.50;99.90;;;;;;6152041;23;20105;-82
2023/02/28 00:47:01;;;;;;;9.57;4.20;;;-3.40;99.90;;;;;;6150388;23;20087;-83
2023/02/28 00:49:48;;;;;;;6.22;3.67;;;-3.50;99.90;;;;;;6152370;23;20033;-84
2023/02/28 00:52:36;;;;;;;11.25;4.15;;;-3.60;99.90;;;;;;6152915;23;20036;-84
2023/02/28 00:55:23;;;;;;;6.75;3.80;;;-3.60;99.90;;;;;;6151583;23;20474;-83
2023/02/28 00:58:10;;;;;;;7.45;3.70;;;-3.60;99.90;;;;;;6157686;23;20029;-82
2023/02/28 01:00:59;;;;;;;6.18;3.72;;;-3.60;99.90;;;;;;6150390;23;20022;-83
2023/02/28 01:03:46;;;;;;;9.25;3.92;;;-3.70;99.90;;;;;;6152579;23;20412;-83
2023/02/28 01:06:34;;;;;;;8.25;3.85;;;-3.70;99.90;;;;;;6150666;23;20025;-83
2023/02/28 01:09:21;;;;;;;6.53;3.80;;;-3.60;99.90;;;;;;6151585;23;20030;-82
2023/02/28 01:12:09;;;;;;;8.00;4.05;;;-3.70;99.90;;;;;;6155946;23;20030;-84
2023/02/28 01:14:59;;;;;;;7.18;3.97;;;-3.70;99.90;;;;;;6157551;23;20029;-83
2023/02/28 01:17:47;;;;;;;7.03;3.78;;;-3.80;99.90;;;;;;6148158;23;20025;-83
2023/02/28 01:20:37;;;;;;;6.13;3.45;;;-3.80;99.90;;;;;;6148776;23;20049;-83
2023/02/28 01:23:24;;;;;;;7.72;4.13;;;-3.70;99.90;;;;;;6140237;23;20025;-83
2023/02/28 01:26:22;;;;;;;7.25;3.72;;;-3.80;99.90;;;;;;6154152;23;20022;-84
2023/02/28 01:29:10;;;;;;;5.50;4.10;;;-3.80;99.90;;;;;;6156369;23;20037;-83
2023/02/28 01:31:59;;;;;;;7.25;4.35;;;-3.80;99.90;;;;;;6156907;23;20290;-82
2023/02/28 01:34:47;;;;;;;5.65;4.68;;;-3.90;99.90;;;;;;6134721;23;20040;-81
2023/02/28 01:37:34;;;;;;;7.07;4.65;;;-3.80;99.90;;;;;;6116493;23;20056;-83
2023/02/28 01:40:24;;;;;;;8.13;4.30;;;-3.80;99.90;;;;;;6155248;23;20033;-82
2023/02/28 01:43:27;;;;;;;9.50;4.28;;;-3.80;99.90;;;;;;6152810;23;20036;-83
2023/02/28 01:46:15;;;;;;;;;;;-3.80;99.90;;;;;;6170024;23;20010;-82
2023/02/28 01:49:15;;;;;;;6.82;4.20;;;-3.80;99.90;;;;;;6165630;23;19916;-83
2023/02/28 01:52:05;;;;;;;8.68;4.28;;;-3.80;99.90;;;;;;6174915;22;20025;-81
2023/02/28 01:54:56;;;;;;;6.25;4.45;;;-3.90;99.90;;;;;;6168512;22;20071;-81
2023/02/28 01:57:51;;;;;;;7.95;4.70;;;-3.90;99.90;;;;;;6139562;23;20368;-82
2023/02/28 02:00:40;;;;;;;7.15;4.57;;;-3.90;99.90;;;;;;6163056;23;20030;-82
2023/02/28 02:03:28;;;;;;;7.35;4.25;;;-3.80;99.90;;;;;;6153229;23;20032;-83
2023/02/28 02:06:22;;;;;;;8.95;4.15;;;-3.80;99.90;;;;;;6153678;23;20065;-82
2023/02/28 02:09:12;;;;;;;8.27;4.28;;;-3.80;99.90;;;;;;6156706;22;20018;-80
2023/02/28 02:12:09;;;;;;;7.60;4.32;;;-3.70;99.90;;;;;;6152845;22;20010;-81
2023/02/28 02:15:24;;;;;;;7.82;4.63;;;-3.80;99.90;;;;;;6141248;23;20033;-82
2023/02/28 02:18:30;;;;;;;7.10;4.30;;;-3.80;99.90;;;;;;6130866;23;20079;-83
2023/02/28 02:21:32;;;;;;;10.40;4.78;;;-3.80;99.90;;;;;;6154775;23;20029;-81
2023/02/28 02:24:47;;;;;;;16.08;4.90;;;-3.80;99.90;;;;;;6136067;23;20026;-83
2023/02/28 02:28:13;;;;;;;7.97;4.93;;;-3.90;99.90;;;;;;6134833;23;20036;-83
2023/02/28 02:31:19;;;;;;;7.35;5.20;;;-3.90;99.90;;;;;;6097032;23;20265;-80
2023/02/28 02:34:21;;;;;;;8.52;4.97;;;-3.80;99.90;;;;;;6131617;23;20317;-83
2023/02/28 02:37:40;;;;;;;9.98;5.30;;;-3.80;99.90;;;;;;6158959;23;20297;-83
2023/02/28 02:40:54;;;;;;;9.82;4.93;;;-3.70;99.90;;;;;;6136944;23;20045;-83
2023/02/28 02:44:01;;;;;;;9.45;5.85;;;-3.80;99.90;;;;;;6136940;23;20025;-84
2023/02/28 02:46:52;;;;;;;13.18;5.70;;;-3.70;99.90;;;;;;6151002;23;20026;-82
2023/02/28 02:49:45;;;;;;;6.28;4.85;;;-3.70;99.90;;;;;;6152350;23;20026;-84
2023/02/28 02:52:44;;;;;;;8.20;5.53;;;-3.60;99.90;;;;;;6150886;23;20029;-83
2023/02/28 02:55:38;;;;;;;9.48;5.32;;;-3.60;99.90;;;;;;6153706;23;20151;-82
2023/02/28 02:58:32;;;;;;;12.60;5.50;;;-3.50;99.90;;;;;;6153108;23;20025;-85
2023/02/28 03:01:27;;;;;;;9.02;5.43;;;-3.50;99.90;;;;;;6130381;23;20049;-83
2023/02/28 03:04:22;;;;;;;8.50;5.13;;;-3.50;99.90;;;;;;6152878;23;20417;-83
2023/02/28 03:07:09;;;;;;;6.90;5.30;;;-3.50;99.90;;;;;;6151795;23;20025;-82
2023/02/28 03:09:58;;;;;;;9.45;5.80;;;-3.40;99.90;;;;;;6151362;23;20030;-83
2023/02/28 03:12:54;;;;;;;8.18;5.75;;;-3.40;99.90;;;;;;6130655;23;20041;-85
2023/02/28 03:16:20;;;;;;;11.50;5.70;;;-3.40;99.90;;;;;;6131590;23;20106;-83
2023/02/28 03:19:44;;;;;;;16.17;6.00;;;-3.40;99.90;;;;;;6128512;23;20030;-83
2023/02/28 03:22:37;;;;;;;11.73;5.75;;;-3.40;99.90;;;;;;6131487;23;20021;-81
2023/02/28 03:25:30;;;;;;;8.63;5.82;;;-3.40;99.90;;;;;;6161108;23;20021;-81
2023/02/28 03:28:31;;;;;;;10.23;6.30;;;-3.40;99.90;;;;;;6160789;22;20088;-84
2023/02/28 03:31:29;;;;;;;8.50;5.60;;;-3.40;99.90;;;;;;6152960;22;20032;-82
2023/02/28 03:34:31;;;;;;;8.80;5.78;;;-3.40;99.90;;;;;;6154250;22;20448;-82
2023/02/28 03:37:23;;;;;;;13.60;6.35;;;-3.40;99.90;;;;;;6151591;23;20147;-81
2023/02/28 03:40:23;;;;;;;14.23;6.10;;;-3.40;99.90;;;;;;6153767;23;20025;-82
2023/02/28 03:43:18;;;;;;;8.55;5.55;;;-3.30;1.00;;;;;;6113053;23;20278;-81
2023/02/28 03:46:10;;;;;;;11.05;6.00;;;-3.30;99.90;;;;;;6121671;23;20029;-81
2023/02/28 03:49:02;;;;;;;;;;;-3.20;99.90;;;;;;6172801;23;20010;-82
2023/02/28 03:51:53;;;;;;;9.30;5.75;;;-3.20;99.90;;;;;;6132097;23;19927;-82
2023/02/28 03:54:48;;;;;;;13.88;6.43;;;-3.10;99.90;;;;;;6174794;23;20025;-82
2023/02/28 03:57:53;;;;;;;7.97;5.80;;;-3.10;1.00;;;;;;6172352;23;20009;-82
2023/02/28 04:00:46;;;;;;;10.05;6.13;;;-3.10;1.00;;;;;;6167388;23;20021;-84
2023/02/28 04:03:37;;;;;;;8.32;6.22;;;-3.10;1.00;;;;;;6142290;23;20018;-81
2023/02/28 04:06:27;;;;;;;10.65;6.38;;;-3.10;1.00;;;;;;6127305;23;20467;-83
2023/02/28 04:09:15;;;;;;;10.63;6.30;;;-3.00;1.00;;;;;;6166972;23;20021;-83
2023/02/28 04:12:03;;;;;;;12.27;6.20;;;-3.00;1.00;;;;;;6150301;23;20041;-81
2023/02/28 04:14:50;;;;;;;8.93;6.93;;;-3.10;1.00;;;;;;6169165;22;20009;-82
2023/02/28 04:17:38;;;;;;;9.73;6.88;;;-3.00;1.00;;;;;;6167874;23;20026;-82
2023/02/28 04:20:25;;;;;;;10.10;6.72;;;-3.10;1.00;;;;;;6159846;23;20026;-83
2023/02/28 04:23:12;;;;;;;10.52;6.72;;;-3.00;1.00;;;;;;6155757;23;20056;-83
2023/02/28 04:26:00;;;;;;;11.02;6.70;;;-3.00;1.00;;;;;;6152251;23;20094;-82
2023/02/28 04:28:47;;;;;;;8.52;6.47;;;-3.00;1.00;;;;;;6133234;23;20026;-81
2023/02/28 04:31:36;;;;;;;13.65;7.45;;;-3.00;1.00;;;;;;6158871;22;20029;-81
2023/02/28 04:34:28;;;;;;;11.82;7.00;;;-3.00;1.00;;;;;;6132832;23;20114;-82
2023/02/28 04:37:15;;;;;;;10.73;6.93;;;-3.00;1.00;;;;;;6131082;23;20029;-82
2023/02/28 04:40:05;;;;;;;12.75;7.18;;;-3.00;1.00;;;;;;6153206;23;20040;-85
2023/02/28 04:42:55;;;;;;;10.32;6.63;;;-3.00;1.00;;;;;;6156338;23;20052;-83
2023/02/28 04:45:42;;;;;;;12.55;6.65;;;-3.00;1.00;;;;;;6138516;23;20030;-82
2023/02/28 04:48:38;;;;;;;13.15;6.95;;;-3.00;1.00;;;;;;6134553;23;20502;-83
2023/02/28 04:51:25;;;;;;;10.85;7.03;;;-2.90;1.00;;;;;;6153312;23;20026;-83
2023/02/28 04:54:15;;;;;;;13.70;7.18;;;-2.90;1.00;;;;;;6152496;23;20301;-82
2023/02/28 04:57:04;;;;;;;14.98;7.20;;;-2.90;1.00;;;;;;6154515;23;20029;-82
2023/02/28 04:59:51;;;;;;;12.27;6.00;;;-2.90;1.00;;;;;;6133448;23;20021;-82
2023/02/28 05:02:58;;;;;;;13.35;7.40;;;-2.90;1.00;;;;;;6133600;23;20118;-82
2023/02/28 05:05:46;;;;;;;11.40;7.22;;;-2.90;1.00;;;;;;6139104;23;20033;-82
2023/02/28 05:08:37;;;;;;;12.93;7.78;;;-2.80;1.00;;;;;;6135689;23;20029;-83
2023/02/28 05:11:34;;;;;;;14.07;8.15;;;-2.80;1.00;;;;;;6151877;23;20021;-85
2023/02/28 05:14:22;;;;;;;12.73;7.35;;;-2.80;1.00;;;;;;6153520;23;20101;-82
2023/02/28 05:17:10;;;;;;;13.15;7.68;;;-2.80;1.00;;;;;;6152913;23;20079;-82
2023/02/28 05:19:57;;;;;;;15.20;7.60;;;-2.80;1.00;;;;;;6155406;23;20029;-83
2023/02/28 05:23:03;;;;;;;12.80;8.00;;;-2.80;1.00;;;;;;6137091;23;20372;-84
2023/02/28 05:25:52;;;;;;;17.17;7.70;;;-2.80;1.00;;;;;;6155972;23;20079;-85
2023/02/28 05:28:41;;;;;;;13.25;8.50;;;-2.80;1.00;;;;;;6162553;22;20039;-84
2023/02/28 05:31:28;;;;;;;12.50;7.88;;;-2.70;1.00;;;;;;6155353;23;20033;-85
2023/02/28 05:34:19;;;;;;;10.20;7.72;;;-2.80;1.00;;;;;;6136139;23;20026;-84
2023/02/28 05:37:13;;;;;;;12.38;7.88;;;-2.80;1.00;;;;;;6153267;23;20034;-82
2023/02/28 05:40:06;;;;;;;11.48;7.88;;;-2.70;1.00;;;;;;6132980;23;20029;-83
2023/02/28 05:42:55;;;;;;;14.00;8.98;;;-2.70;1.00;;;;;;6131757;23;20433;-85
2023/02/28 05:45:44;;;;;;;14.18;8.70;;;-2.80;1.00;;;;;;6132871;23;20049;-82
2023/02/28 05:48:33;;;;;;;16.40;9.23;;;-2.80;1.00;;;;;;6155211;23;20026;-86
2023/02/28 05:51:20;;;;;;;13.70;9.00;;;-2.80;1.00;;;;;;6155563;23;20032;-85
2023/02/28 05:54:12;;;;;;;19.80;9.43;;;-2.80;1.00;;;;;;6137720;23;20029;-85
2023/02/28 05:57:00;;;;;;;15.20;9.68;;;-2.80;1.00;;;;;;6156125;23;20025;-85
2023/02/28 05:59:47;;;;;;;19.17;10.40;;;-2.70;7.20;;;;;;6155104;23;20408;-83
2023/02/28 06:02:34;;;;;;;14.75;9.88;;;-2.80;21.10;;;;;;6139171;23;20087;-85
2023/02/28 06:05:22;;;;;;;16.08;9.80;;;-2.80;51.60;;;;;;6142532;23;20046;-86
2023/02/28 06:08:11;;;;;;;12.88;9.55;;;-2.80;93.20;;;;;;6162330;23;20025;-85
2023/02/28 06:11:02;;;;;;;17.35;9.55;;;-2.80;99.90;;;;;;6142039;23;20364;-84
2023/02/28 06:13:52;;;;;;;17.30;10.32;;;-2.80;99.90;;;;;;6158587;23;20336;-86
2023/02/28 06:16:40;;;;;;;18.02;9.25;;;-2.80;99.90;;;;;;6158608;23;20032;-86
2023/02/28 06:19:28;;;;;;;15.63;9.80;;;-2.80;99.90;;;;;;6153694;23;20873;-84
2023/02/28 06:22:21;;;;;;;14.63;9.75;;;-2.80;99.90;;;;;;6161154;23;20022;-84
2023/02/28 06:25:12;;;;;;;14.45;10.10;;;-2.80;99.90;;;;;;6151131;23;20047;-83
2023/02/28 06:27:59;;;;;;;17.67;10.68;;;-2.80;99.90;;;;;;6169734;23;20040;-83
2023/02/28 06:30:47;;;;;;;15.40;10.20;;;-2.80;99.90;;;;;;6154152;22;20025;-86
2023/02/28 06:33:38;;;;;;;18.30;10.07;;;-2.80;99.90;;;;;;6148128;23;20047;-82
2023/02/28 06:36:25;;;;;;;17.00;10.52;;;-2.80;99.90;;;;;;6142038;23;20412;-84
2023/02/28 06:39:15;;;;;;;21.20;11.05;;;-2.80;99.90;;;;;;6139885;23;20029;-85
2023/02/28 06:42:03;;;;;;;17.73;11.25;;;-2.70;99.90;;;;;;6157601;23;20025;-87
2023/02/28 06:44:51;;;;;;;18.98;11.35;;;-2.70;99.90;;;;;;6141261;23;20037;-85
2023/02/28 06:47:40;;;;;;;19.73;10.80;;;-2.70;99.90;;;;;;6141100;23;20029;-85
2023/02/28 06:50:34;;;;;;;18.05;10.35;;;-2.70;99.90;;;;;;6157597;23;20025;-88
2023/02/28 07:01:58;;;;;;;;;;;;;;;;;;;;;
2023/02/28 07:10:28;;;;;;;;;;;;;;;;;;;;;
2023/02/28 07:30:27;;;;;;;19.83;10.48;;;-2.20;19.40;;;;;;5938958;24;20350;-81
2023/02/28 07:34:21;;;;;;;;;;;;;;;;;;;;;
2023/02/28 07:38:03;;;;;;;;;;;;;;;;;;;;;
2023/02/28 07:45:38;;;;;;;;;;;;;;;;;;;;;
2023/02/28 08:02:46;;;;;;;;;;;;;;;;;;;;;
2023/02/28 08:51:17;;;;;;;16.83;11.27;;;-1.40;99.90;;;;;;5948992;22;9416699;-87
2023/02/28 08:54:12;;;;;;;23.95;12.65;;;-1.40;99.90;;;;;;6395583;22;20052;-83
2023/02/28 09:06:23;;;;;;;21.45;11.88;;;-1.20;99.90;;;;;;6288437;22;20479;-87
2023/02/28 09:09:53;;;;;;;23.10;13.02;;;-1.20;99.90;;;;;;6119089;23;20295;-82
2023/02/28 09:12:59;;;;;;;27.30;12.80;;;-1.10;99.90;;;;;;6297295;22;20401;-82
2023/02/28 09:15:49;;;;;;;22.10;11.90;;;-1.10;99.90;;;;;;6387435;22;20076;-84
2023/02/28 09:18:38;;;;;;;16.85;11.63;;;-1.00;99.90;;;;;;6378600;22;20026;-82
2023/02/28 09:21:28;;;;;;;21.40;12.00;;;-0.90;99.90;;;;;;6386417;22;20026;-84
2023/02/28 09:24:19;;;;;;;18.70;11.40;;;-0.90;99.90;;;;;;6350399;22;20033;-82
2023/02/28 09:27:11;;;;;;;21.38;9.57;;;-0.90;99.90;;;;;;6349532;22;20109;-80
2023/02/28 09:30:12;;;;;;;;;;;;;;;;;;;;;
2023/02/28 09:33:10;;;;;;;21.55;11.93;;;-0.70;99.90;;;;;;6372164;22;20019;-82
2023/02/28 09:36:02;;;;;;;18.70;11.65;;;-0.70;99.90;;;;;;6348455;22;20101;-81
2023/02/28 09:38:57;;;;;;;19.23;12.00;;;-0.70;99.90;;;;;;6371116;22;20026;-81
2023/02/28 09:41:49;;;;;;;25.75;12.48;;;-0.60;99.90;;;;;;6369657;22;20026;-81
2023/02/28 09:44:45;;;;;;;19.67;11.80;;;-0.60;99.90;;;;;;6369360;22;20026;-80
2023/02/28 09:47:46;;;;;;;18.70;11.77;;;-0.70;99.90;;;;;;6345818;22;20033;-80
2023/02/28 09:50:36;;;;;;;20.25;11.40;;;-0.60;99.90;;;;;;6339086;22;20019;-83
2023/02/28 09:53:35;;;;;;;20.40;11.77;;;-0.50;99.90;;;;;;6319801;22;20027;-82
2023/02/28 09:56:45;;;;;;;20.83;12.13;;;-0.40;99.90;;;;;;6337315;22;20111;-82
2023/02/28 09:59:48;;;;;;;21.90;12.68;;;-0.50;99.90;;;;;;6338209;22;20037;-81
2023/02/28 10:02:50;;;;;;;;;;;-0.50;99.90;;;;;;6318628;22;20641;-83
2023/02/28 10:05:53;;;;;;;17.05;11.38;;;-0.50;99.90;;;;;;6329267;22;19914;-83
2023/02/28 10:09:01;;;;;;;17.85;11.60;;;-0.50;99.90;;;;;;6338066;22;20023;-80
2023/02/28 10:11:55;;;;;;;20.60;12.05;;;-0.40;99.90;;;;;;6338529;22;20027;-81
2023/02/28 10:14:49;;;;;;;23.88;12.73;;;-0.30;99.90;;;;;;6296014;22;20027;-81
2023/02/28 10:17:42;;;;;;;19.63;12.23;;;-0.30;99.90;;;;;;6315686;22;20049;-83
2023/02/28 10:20:43;;;;;;;20.58;12.32;;;-0.20;99.90;;;;;;6315336;22;20030;-82
2023/02/28 10:23:39;;;;;;;19.95;11.90;;;-0.10;99.90;;;;;;6293726;22;20031;-82
2023/02/28 10:26:34;;;;;;;18.40;11.88;;;-0.20;99.90;;;;;;6339269;22;20032;-81
2023/02/28 10:29:22;;;;;;;22.63;12.20;;;-0.10;99.90;;;;;;6315782;22;20030;-81
2023/02/28 10:32:15;;;;;;;24.67;12.50;;;0.00;99.90;;;;;;6338258;22;20019;-82
2023/02/28 10:35:44;;;;;;;20.98;12.30;;;0.10;99.90;;;;;;6340457;22;20023;-80
2023/02/28 10:46:36;;;;;;;21.65;12.52;;;0.30;99.90;;;;;;6180772;23;20043;-81
2023/02/28 10:49:45;;;;;;;17.52;10.88;;;0.50;99.90;;;;;;6186397;23;20040;-81
2023/02/28 10:53:02;;;;;;;20.98;11.98;;;0.80;99.90;;;;;;6215572;23;20104;-82
2023/02/28 10:56:37;;;;;;;;;;;;;;;;;;;;;
2023/02/28 10:59:42;;;;;;;;;;;;;;;;;;;;;
2023/02/28 11:02:37;;;;;;;14.65;10.00;;;1.50;99.90;;;;;;6340423;22;20030;-80
2023/02/28 11:05:47;;;;;;;15.93;10.57;;;1.40;99.90;;;;;;6338780;22;20029;-79
2023/02/28 11:08:49;;;;;;;21.20;11.48;;;1.50;99.90;;;;;;6338749;22;20030;-82
2023/02/28 11:11:56;;;;;;;15.20;10.60;;;1.50;99.90;;;;;;6337903;22;20076;-81
2023/02/28 11:15:01;;;;;;;19.23;11.43;;;1.60;99.90;;;;;;6338337;22;20425;-79
2023/02/28 11:18:29;;;;;;;16.63;10.43;;;1.50;99.90;;;;;;6334721;22;20026;-83
2023/02/28 11:21:58;;;;;;;22.60;11.75;;;1.80;99.90;;;;;;6238235;22;20030;-81
2023/02/28 11:24:48;;;;;;;17.70;11.10;;;1.60;99.90;;;;;;6339900;22;20023;-81
2023/02/28 11:28:31;;;;;;;18.53;11.00;;;1.80;99.90;;;;;;6338103;22;20280;-85
2023/02/28 11:32:03;;;;;;;21.70;11.75;;;1.80;99.90;;;;;;6336661;22;20280;-80
2023/02/28 11:35:19;;;;;;;27.40;15.20;;;1.80;99.90;;;;;;6338701;22;20123;-84
2023/02/28 11:38:15;;;;;;;19.92;12.90;;;2.20;99.90;;;;;;6332549;22;20728;-80
2023/02/28 11:41:28;;;;;;;20.95;12.70;;;2.30;99.90;;;;;;6339868;22;20088;-80
2023/02/28 11:44:24;;;;;;;19.55;11.25;;;2.50;99.90;;;;;;6341740;22;20081;-82
2023/02/28 11:47:38;;;;;;;16.77;11.43;;;2.70;99.90;;;;;;6339510;22;20034;-81
2023/02/28 11:50:41;;;;;;;17.35;10.85;;;2.30;99.90;;;;;;6338513;22;20363;-80
2023/02/28 11:53:52;;;;;;;17.73;11.38;;;2.30;99.90;;;;;;6347529;22;20029;-80
2023/02/28 11:56:56;;;;;;;18.15;11.68;;;2.30;99.90;;;;;;6350437;22;20049;-80
2023/02/28 12:00:09;;;;;;;17.10;11.55;;;2.50;99.90;;;;;;6337878;22;20394;-81
2023/02/28 12:03:12;;;;;;;17.63;10.63;;;2.40;99.90;;;;;;6341654;22;20310;-82
2023/02/28 12:06:59;;;;;;;17.63;11.57;;;2.20;99.90;;;;;;6333125;22;20045;-79
2023/02/28 12:10:13;;;;;;;18.25;11.40;;;2.50;99.90;;;;;;6337449;22;20027;-82
2023/02/28 12:13:43;;;;;;;14.90;10.43;;;4.60;99.90;;;;;;6339816;22;20022;-84
2023/02/28 12:17:15;;;;;;;17.48;11.48;;;5.10;99.90;;;;;;6339271;22;20103;-80
2023/02/28 12:20:14;;;;;;;19.80;10.82;;;5.40;99.90;;;;;;6215413;22;20084;-78
2023/02/28 12:23:26;;;;;;;16.48;10.30;;;6.10;95.80;;;;;;6334550;22;20030;-81
2023/02/28 12:26:16;;;;;;;13.88;9.98;;;6.20;90.80;;;;;;6337489;22;20022;-81
2023/02/28 12:29:19;;;;;;;17.02;10.85;;;6.30;87.40;;;;;;6345999;22;20030;-83
2023/02/28 12:32:11;;;;;;;15.63;9.73;;;7.30;85.30;;;;;;6347271;22;20048;-83
2023/02/28 12:35:07;;;;;;;16.05;9.07;;;7.30;69.80;;;;;;6339538;22;20050;-82
2023/02/28 12:38:19;;;;;;;15.30;10.10;;;6.60;57.80;;;;;;6338732;22;20023;-81
2023/02/28 12:41:16;;;;;;;17.17;10.32;;;6.00;52.70;;;;;;6335997;22;20048;-82
2023/02/28 12:44:12;;;;;;;16.38;10.70;;;5.60;52.30;;;;;;6340644;22;20026;-80
2023/02/28 12:47:05;;;;;;;12.73;9.38;;;6.50;57.70;;;;;;6338257;22;20267;-81
2023/02/28 12:50:06;;;;;;;13.63;10.07;;;7.70;55.00;;;;;;6369177;22;20433;-81
2023/02/28 12:52:56;;;;;;;12.55;9.68;;;7.40;44.10;;;;;;6347639;22;20022;-82
2023/02/28 12:56:17;;;;;;;15.32;9.50;;;7.90;40.40;;;;;;6349632;22;20030;-82
2023/02/28 12:59:27;;;;;;;13.95;9.75;;;8.60;43.00;;;;;;6344538;22;20397;-78
2023/02/28 13:02:49;;;;;;;16.17;10.25;;;9.20;40.30;;;;;;6367458;22;20026;-81
2023/02/28 13:05:58;;;;;;;13.87;9.53;;;9.10;36.40;;;;;;6237072;22;20071;-81
2023/02/28 13:08:59;;;;;;;15.10;9.88;;;9.90;44.90;;;;;;6347445;22;20028;-81
2023/02/28 13:11:52;;;;;;;12.30;9.20;;;10.00;28.00;;;;;;6351243;22;20026;-81
2023/02/28 13:15:01;;;;;;;14.18;9.68;;;9.30;21.50;;;;;;6347118;22;20026;-82
2023/02/28 13:18:22;;;;;;;14.77;9.65;;;9.60;17.60;;;;;;6372763;22;20034;-82
2023/02/28 13:21:30;;;;;;;14.05;9.13;;;10.30;21.50;;;;;;6372526;22;20037;-84
2023/02/28 13:24:39;;;;;;;10.70;8.02;;;10.80;18.70;;;;;;6347619;22;20026;-83
2023/02/28 13:28:00;;;;;;;12.13;8.48;;;11.30;16.70;;;;;;6348463;22;20029;-86
2023/02/28 13:34:07;;;;;;;16.23;9.82;;;9.70;1.00;;;;;;6371593;22;20310;-82
2023/02/28 13:37:22;;;;;;;14.95;10.07;;;9.20;1.00;;;;;;6320771;22;20105;-84
2023/02/28 13:40:38;;;;;;;14.18;9.13;;;8.60;1.90;;;;;;6367954;22;20026;-83
2023/02/28 13:44:08;;;;;;;19.08;9.52;;;8.40;1.00;;;;;;6348846;22;20366;-84
2023/02/28 13:46:56;;;;;;;13.35;9.77;;;9.40;4.20;;;;;;6371451;22;20054;-81
2023/02/28 13:49:47;;;;;;;13.27;9.27;;;9.40;1.00;;;;;;6347293;22;20022;-83
2023/02/28 13:53:03;;;;;;;13.95;9.75;;;9.40;1.00;;;;;;6366221;22;20033;-83
2023/02/28 13:55:59;;;;;;;12.50;9.13;;;9.60;1.00;;;;;;6369445;22;20098;-82
2023/02/28 13:59:17;;;;;;;13.52;9.60;;;10.10;1.00;;;;;;6369208;22;20022;-84
2023/02/28 14:02:16;;;;;;;15.27;9.88;;;9.80;1.00;;;;;;6370024;22;20029;-82
2023/02/28 14:05:16;;;;;;;13.90;9.55;;;9.70;1.00;;;;;;6346722;22;20030;-80
2023/02/28 14:08:16;;;;;;;13.27;10.27;;;9.80;1.00;;;;;;6368066;22;20018;-81
2023/02/28 14:11:08;;;;;;;18.33;9.77;;;10.00;1.00;;;;;;6368721;22;20037;-82
2023/02/28 14:35:37;;;;;;;14.73;10.55;;;9.20;1.00;;;;;;6156294;23;20031;-84
2023/02/28 14:47:19;;;;;;;15.90;9.50;;;10.40;1.00;;;;;;5993423;23;20028;-88
2023/02/28 14:54:07;;;;;;;;;;;10.90;1.00;;;;;;6183565;22;20281;-89
2023/02/28 15:18:06;;;;;;;13.70;9.40;;;9.50;1.00;;;;;;6213605;23;20043;-85
2023/02/28 15:20:56;;;;;;;14.38;9.90;;;8.70;1.00;;;;;;6369275;22;20030;-85
2023/02/28 15:24:03;;;;;;;15.20;9.95;;;9.00;1.00;;;;;;6372663;22;20018;-85
2023/02/28 15:26:58;;;;;;;13.70;10.13;;;8.70;1.00;;;;;;6351046;22;20026;-89
2023/02/28 15:29:57;;;;;;;15.60;10.55;;;8.50;1.00;;;;;;6349257;22;20022;-88
2023/02/28 15:33:01;;;;;;;15.68;10.85;;;8.00;1.00;;;;;;6373695;22;20022;-89
2023/02/28 15:35:50;;;;;;;15.55;10.55;;;7.50;1.00;;;;;;6347924;22;20033;-88
2023/02/28 15:38:42;;;;;;;13.98;10.70;;;7.00;1.00;;;;;;6353437;22;20086;-89
2023/02/28 15:41:38;;;;;;;18.40;10.48;;;7.00;1.00;;;;;;6347601;22;20042;-87
2023/02/28 15:44:32;;;;;;;16.10;11.02;;;7.40;1.00;;;;;;6348122;22;20419;-89
2023/02/28 15:47:30;;;;;;;20.85;11.55;;;6.50;1.00;;;;;;6354787;22;20022;-90
2023/02/28 15:50:18;;;;;;;14.45;10.30;;;6.20;1.00;;;;;;6350363;22;20037;-90
2023/02/28 15:53:13;;;;;;;15.18;9.80;;;5.80;1.00;;;;;;6349023;22;20026;-88
2023/02/28 15:56:05;;;;;;;16.02;9.85;;;5.60;1.00;;;;;;6348763;22;20022;-87
2023/02/28 15:58:58;;;;;;;16.38;10.73;;;5.60;1.00;;;;;;6348516;22;20018;-87
2023/02/28 16:01:45;;;;;;;19.67;11.75;;;5.80;1.00;;;;;;6374828;22;20022;-85
2023/02/28 16:04:33;;;;;;;15.48;10.98;;;5.70;1.00;;;;;;6360919;22;20026;-87
2023/02/28 16:07:21;;;;;;;15.35;10.75;;;5.50;1.00;;;;;;6385787;22;20018;-86
2023/02/28 16:10:13;;;;;;;20.13;10.52;;;5.60;1.00;;;;;;6389673;22;20026;-88
2023/02/28 16:13:02;;;;;;;14.50;10.77;;;5.50;1.00;;;;;;6372330;22;20006;-85
2023/02/28 16:15:51;;;;;;;17.67;10.68;;;5.20;1.00;;;;;;6363482;22;20054;-88
2023/02/28 16:18:41;;;;;;;20.15;11.55;;;5.40;1.00;;;;;;6357902;22;20328;-88
2023/02/28 16:21:33;;;;;;;15.80;11.30;;;5.00;1.00;;;;;;6357968;22;20042;-87
2023/02/28 16:24:21;;;;;;;16.25;11.48;;;4.80;1.00;;;;;;6371909;22;20025;-85
2023/02/28 16:27:24;;;;;;;16.13;11.30;;;4.50;1.00;;;;;;6374104;22;20029;-86
2023/02/28 16:30:27;;;;;;;21.40;12.95;;;4.10;1.00;;;;;;6352889;22;20421;-87
2023/02/28 16:33:21;;;;;;;33.58;17.73;;;3.60;1.00;;;;;;6349367;22;20352;-88
2023/02/28 16:36:25;;;;;;;23.40;14.00;;;3.30;1.00;;;;;;6374871;22;20437;-87
2023/02/28 16:39:12;;;;;;;20.45;13.32;;;3.10;1.00;;;;;;6374860;22;20037;-88
2023/02/28 16:42:00;;;;;;;20.00;13.20;;;2.80;1.00;;;;;;6348917;22;20026;-87
2023/02/28 16:44:48;;;;;;;20.92;12.65;;;2.70;1.00;;;;;;6374852;22;20371;-88
2023/02/28 16:47:37;;;;;;;20.63;13.25;;;2.60;2.70;;;;;;6374158;22;20022;-90
2023/02/28 16:50:33;;;;;;;22.67;13.57;;;2.40;4.00;;;;;;6350165;22;20034;-87
2023/02/28 16:53:20;;;;;;;21.17;13.65;;;2.30;9.80;;;;;;6346414;22;20079;-84
2023/02/28 16:56:34;;;;;;;20.85;12.88;;;2.20;12.90;;;;;;6372559;22;20023;-85
2023/02/28 16:59:26;;;;;;;18.75;13.20;;;2.10;16.80;;;;;;6378019;22;20036;-86
2023/02/28 17:02:16;;;;;;;21.55;12.55;;;2.00;20.50;;;;;;6372486;22;20500;-86
2023/02/28 17:05:04;;;;;;;21.27;12.95;;;1.80;24.60;;;;;;6347474;22;20033;-86
2023/02/28 17:07:51;;;;;;;19.42;12.48;;;1.70;28.80;;;;;;6372893;22;20018;-83
2023/02/28 17:10:39;;;;;;;21.98;13.30;;;1.70;33.90;;;;;;6370536;22;20027;-84
2023/02/28 17:13:28;;;;;;;21.35;13.50;;;1.60;37.50;;;;;;6351299;22;20022;-84
2023/02/28 17:16:30;;;;;;;26.00;14.35;;;1.40;44.20;;;;;;6348830;22;20052;-85
2023/02/28 17:19:18;;;;;;;19.90;12.60;;;1.30;50.30;;;;;;6372202;22;20101;-85
2023/02/28 17:22:08;;;;;;;20.08;13.38;;;1.20;57.30;;;;;;6350229;22;20048;-86
2023/02/28 17:24:58;;;;;;;25.77;15.05;;;1.10;65.90;;;;;;6373388;22;20310;-85
2023/02/28 17:27:48;;;;;;;26.13;14.55;;;1.10;75.20;;;;;;6355625;22;20033;-84
2023/02/28 17:30:36;;;;;;;23.15;14.13;;;1.10;82.60;;;;;;6376358;22;20101;-85
2023/02/28 17:33:25;;;;;;;21.15;14.00;;;1.10;88.00;;;;;;6348329;22;20037;-85
2023/02/28 17:36:21;;;;;;;23.65;14.02;;;1.00;91.20;;;;;;6349875;22;20036;-84
2023/02/28 17:39:10;;;;;;;25.63;14.23;;;0.90;94.40;;;;;;6373437;22;20026;-85
2023/02/28 17:41:57;;;;;;;21.70;14.40;;;0.90;98.00;;;;;;6370910;22;20026;-84
2023/02/28 17:44:45;;;;;;;25.63;14.40;;;0.70;99.90;;;;;;6347743;22;20038;-84
2023/02/28 17:47:32;;;;;;;24.75;15.10;;;0.60;99.90;;;;;;6370413;22;20022;-85
2023/02/28 17:50:22;;;;;;;21.92;14.00;;;0.60;99.90;;;;;;6347206;22;20041;-84
2023/02/28 17:53:09;;;;;;;20.98;13.98;;;0.60;99.90;;;;;;6375985;22;20105;-85
2023/02/28 17:55:56;;;;;;;26.17;14.07;;;0.50;99.90;;;;;;6349163;22;20387;-83
2023/02/28 17:58:44;;;;;;;24.08;14.52;;;0.40;99.90;;;;;;6376728;22;20026;-82
2023/02/28 18:01:34;;;;;;;25.33;14.88;;;0.40;99.90;;;;;;6373767;22;20030;-82
2023/02/28 18:04:22;;;;;;;28.95;14.45;;;0.40;99.90;;;;;;6348907;22;20367;-85
2023/02/28 18:07:11;;;;;;;28.08;14.77;;;0.30;99.90;;;;;;6350656;22;20018;-86
2023/02/28 18:09:59;;;;;;;26.70;14.38;;;0.30;99.90;;;;;;6350990;22;20033;-86
2023/02/28 18:12:51;;;;;;;23.17;14.82;;;0.30;99.90;;;;;;6353213;22;20018;-87
2023/02/28 18:15:40;;;;;;;24.10;14.57;;;0.20;99.90;;;;;;6350042;22;20022;-85
2023/02/28 18:18:28;;;;;;;24.38;14.65;;;0.20;99.90;;;;;;6351102;22;20061;-83